sensor_id;sensor_type;location;lat;lon;timestamp;pressure;altitude;pressure_sealevel;temperature;humidity
23427;BME280;41148;45.420;10.952;2023-11-19T00:01:55;101397.16;;;7.30;66.33
23427;BME280;41148;45.420;10.952;2023-11-19T00:04:25;101399.81;;;7.23;65.50
23427;BME280;41148;45.420;10.952;2023-11-19T00:06:52;101406.00;;;7.23;65.76
23427;BME280;41148;45.420;10.952;2023-11-19T00:09:22;101404.28;;;7.07;66.10
23427;BME280;41148;45.420;10.952;2023-11-19T00:11:50;101401.59;;;7.19;65.98
23427;BME280;41148;45.420;10.952;2023-11-19T00:14:21;101393.66;;;7.25;65.43
23427;BME280;41148;45.420;10.952;2023-11-19T00:16:48;101383.06;;;7.16;65.84
23427;BME280;41148;45.420;10.952;2023-11-19T00:19:18;101382.16;;;7.20;66.88
23427;BME280;41148;45.420;10.952;2023-11-19T00:21:45;101356.44;;;7.42;65.63
23427;BME280;41148;45.420;10.952;2023-11-19T00:24:13;101359.06;;;7.54;65.28
23427;BME280;41148;45.420;10.952;2023-11-19T00:26:43;101374.13;;;7.40;65.91
23427;BME280;41148;45.420;10.952;2023-11-19T00:29:10;101375.81;;;7.59;64.96
23427;BME280;41148;45.420;10.952;2023-11-19T00:31:38;101381.19;;;7.47;64.91
23427;BME280;41148;45.420;10.952;2023-11-19T00:34:05;101380.31;;;7.48;64.14
23427;BME280;41148;45.420;10.952;2023-11-19T00:36:33;101369.66;;;7.51;63.79
23427;BME280;41148;45.420;10.952;2023-11-19T00:39:00;101365.25;;;7.50;63.56
23427;BME280;41148;45.420;10.952;2023-11-19T00:41:28;101364.38;;;7.56;63.06
23427;BME280;41148;45.420;10.952;2023-11-19T00:43:55;101374.06;;;7.57;62.89
23427;BME280;41148;45.420;10.952;2023-11-19T00:46:22;101370.63;;;7.33;63.82
23427;BME280;41148;45.420;10.952;2023-11-19T00:48:50;101364.47;;;7.27;64.44
23427;BME280;41148;45.420;10.952;2023-11-19T00:51:21;101367.06;;;7.42;64.34
23427;BME280;41148;45.420;10.952;2023-11-19T00:53:49;101367.94;;;7.42;63.94
23427;BME280;41148;45.420;10.952;2023-11-19T00:56:17;101367.13;;;7.34;63.95
23427;BME280;41148;45.420;10.952;2023-11-19T00:58:44;101371.53;;;7.28;64.72
23427;BME280;41148;45.420;10.952;2023-11-19T01:01:12;101367.97;;;7.38;64.74
23427;BME280;41148;45.420;10.952;2023-11-19T01:03:45;101364.31;;;7.60;64.68
23427;BME280;41148;45.420;10.952;2023-11-19T01:06:13;101356.34;;;7.66;64.38
23427;BME280;41148;45.420;10.952;2023-11-19T01:08:42;101351.00;;;7.75;64.22
23427;BME280;41148;45.420;10.952;2023-11-19T01:11:19;101345.66;;;7.80;64.02
23427;BME280;41148;45.420;10.952;2023-11-19T01:13:49;101346.56;;;7.76;63.91
23427;BME280;41148;45.420;10.952;2023-11-19T01:16:17;101338.59;;;7.78;64.48
23427;BME280;41148;45.420;10.952;2023-11-19T01:18:46;101342.13;;;7.78;63.70
23427;BME280;41148;45.420;10.952;2023-11-19T01:21:14;101331.63;;;7.64;64.01
23427;BME280;41148;45.420;10.952;2023-11-19T01:23:42;101345.75;;;7.62;64.59
23427;BME280;41148;45.420;10.952;2023-11-19T01:26:12;101337.88;;;7.48;64.93
23427;BME280;41148;45.420;10.952;2023-11-19T01:28:40;101332.50;;;7.59;64.93
23427;BME280;41148;45.420;10.952;2023-11-19T01:31:16;101332.50;;;7.65;64.95
23427;BME280;41148;45.420;10.952;2023-11-19T01:33:44;101335.97;;;7.74;64.37
23427;BME280;41148;45.420;10.952;2023-11-19T01:36:15;101319.13;;;7.79;64.72
23427;BME280;41148;45.420;10.952;2023-11-19T01:38:43;101321.91;;;7.63;65.18
23427;BME280;41148;45.420;10.952;2023-11-19T01:41:10;101314.00;;;7.54;65.72
23427;BME280;41148;45.420;10.952;2023-11-19T01:43:38;101318.50;;;7.37;66.15
23427;BME280;41148;45.420;10.952;2023-11-19T01:46:08;101309.69;;;7.30;66.06
23427;BME280;41148;45.420;10.952;2023-11-19T01:48:45;101314.06;;;7.33;65.95
23427;BME280;41148;45.420;10.952;2023-11-19T01:51:12;101319.28;;;7.57;65.59
23427;BME280;41148;45.420;10.952;2023-11-19T01:53:43;101327.19;;;7.65;64.58
23427;BME280;41148;45.420;10.952;2023-11-19T01:56:12;101314.91;;;7.42;64.93
23427;BME280;41148;45.420;10.952;2023-11-19T01:58:40;101317.66;;;7.29;65.92
23427;BME280;41148;45.420;10.952;2023-11-19T02:01:08;101320.25;;;7.36;65.80
23427;BME280;41148;45.420;10.952;2023-11-19T02:03:36;101318.47;;;7.41;65.31
23427;BME280;41148;45.420;10.952;2023-11-19T02:06:04;101298.25;;;7.25;65.16
23427;BME280;41148;45.420;10.952;2023-11-19T02:08:31;101289.44;;;7.17;65.03
23427;BME280;41148;45.420;10.952;2023-11-19T02:10:59;101299.13;;;7.20;64.86
23427;BME280;41148;45.420;10.952;2023-11-19T02:13:27;101295.53;;;7.30;64.34
23427;BME280;41148;45.420;10.952;2023-11-19T02:15:56;101293.81;;;7.24;64.26
23427;BME280;41148;45.420;10.952;2023-11-19T02:18:25;101283.19;;;7.30;65.56
23427;BME280;41148;45.420;10.952;2023-11-19T02:20:56;101282.25;;;7.43;64.56
23427;BME280;41148;45.420;10.952;2023-11-19T02:23:23;101282.22;;;7.46;63.98
23427;BME280;41148;45.420;10.952;2023-11-19T02:28:37;101276.16;;;7.26;63.88
23427;BME280;41148;45.420;10.952;2023-11-19T02:31:05;101268.22;;;7.25;64.26
23427;BME280;41148;45.420;10.952;2023-11-19T02:33:37;101268.16;;;7.31;63.19
23427;BME280;41148;45.420;10.952;2023-11-19T02:36:04;101262.84;;;7.31;62.56
23427;BME280;41148;45.420;10.952;2023-11-19T02:38:35;101260.16;;;7.40;62.58
23427;BME280;41148;45.420;10.952;2023-11-19T02:41:03;101251.34;;;7.36;62.53
23427;BME280;41148;45.420;10.952;2023-11-19T02:43:33;101251.31;;;7.39;62.41
23427;BME280;41148;45.420;10.952;2023-11-19T02:46:03;101251.28;;;7.42;62.48
23427;BME280;41148;45.420;10.952;2023-11-19T02:48:37;101249.50;;;7.49;63.50
23427;BME280;41148;45.420;10.952;2023-11-19T02:51:06;101247.81;;;7.33;63.62
23427;BME280;41148;45.420;10.952;2023-11-19T02:53:37;101250.63;;;7.01;64.36
23427;BME280;41148;45.420;10.952;2023-11-19T02:56:06;101238.34;;;6.89;65.23
23427;BME280;41148;45.420;10.952;2023-11-19T02:58:39;101239.16;;;7.05;65.08
23427;BME280;41148;45.420;10.952;2023-11-19T03:01:07;101240.97;;;6.91;65.67
23427;BME280;41148;45.420;10.952;2023-11-19T03:03:40;101238.28;;;7.01;65.39
23427;BME280;41148;45.420;10.952;2023-11-19T03:06:09;101224.94;;;7.20;65.16
23427;BME280;41148;45.420;10.952;2023-11-19T03:08:40;101230.25;;;7.13;64.99
23427;BME280;41148;45.420;10.952;2023-11-19T03:11:07;101219.81;;;6.87;65.60
23427;BME280;41148;45.420;10.952;2023-11-19T03:13:35;101228.72;;;6.68;66.91
23427;BME280;41148;45.420;10.952;2023-11-19T03:16:03;101226.00;;;6.82;66.34
23427;BME280;41148;45.420;10.952;2023-11-19T03:18:30;101221.50;;;6.95;66.39
23427;BME280;41148;45.420;10.952;2023-11-19T03:20:58;101230.34;;;6.97;65.80
23427;BME280;41148;45.420;10.952;2023-11-19T03:23:26;101233.84;;;7.08;65.70
23427;BME280;41148;45.420;10.952;2023-11-19T03:25:56;101231.16;;;7.12;65.55
23427;BME280;41148;45.420;10.952;2023-11-19T03:28:24;101236.53;;;6.96;66.50
23427;BME280;41148;45.420;10.952;2023-11-19T03:30:51;101236.56;;;6.91;67.21
23427;BME280;41148;45.420;10.952;2023-11-19T03:33:20;101235.66;;;6.91;67.41
23427;BME280;41148;45.420;10.952;2023-11-19T03:35:47;101229.44;;;7.01;67.20
23427;BME280;41148;45.420;10.952;2023-11-19T03:38:15;101226.78;;;7.07;67.71
23427;BME280;41148;45.420;10.952;2023-11-19T03:40:42;101224.06;;;7.13;67.50
23427;BME280;41148;45.420;10.952;2023-11-19T03:43:10;101223.25;;;7.02;67.67
23427;BME280;41148;45.420;10.952;2023-11-19T03:45:40;101211.78;;;7.06;67.78
23427;BME280;41148;45.420;10.952;2023-11-19T03:48:08;101215.28;;;7.03;68.29
23427;BME280;41148;45.420;10.952;2023-11-19T03:50:35;101216.16;;;7.08;68.62
23427;BME280;41148;45.420;10.952;2023-11-19T03:53:02;101215.38;;;6.89;70.20
23427;BME280;41148;45.420;10.952;2023-11-19T03:55:31;101218.03;;;6.85;68.97
23427;BME280;41148;45.420;10.952;2023-11-19T03:57:59;101209.25;;;6.78;68.80
23427;BME280;41148;45.420;10.952;2023-11-19T04:00:29;101210.97;;;6.82;68.85
23427;BME280;41148;45.420;10.952;2023-11-19T04:02:57;101199.47;;;6.85;68.63
23427;BME280;41148;45.420;10.952;2023-11-19T04:05:25;101199.44;;;6.93;68.67
23427;BME280;41148;45.420;10.952;2023-11-19T04:07:53;101198.56;;;6.92;69.92
23427;BME280;41148;45.420;10.952;2023-11-19T04:10:20;101194.22;;;6.86;70.05
23427;BME280;41148;45.420;10.952;2023-11-19T04:12:49;101195.09;;;6.87;70.07
23427;BME280;41148;45.420;10.952;2023-11-19T04:15:17;101196.09;;;6.58;69.78
23427;BME280;41148;45.420;10.952;2023-11-19T04:17:44;101192.56;;;6.52;68.95
23427;BME280;41148;45.420;10.952;2023-11-19T04:20:12;101204.03;;;6.46;69.33
23427;BME280;41148;45.420;10.952;2023-11-19T04:22:42;101203.13;;;6.61;69.00
23427;BME280;41148;45.420;10.952;2023-11-19T04:25:09;101198.69;;;6.69;68.48
23427;BME280;41148;45.420;10.952;2023-11-19T04:27:38;101186.34;;;6.62;68.35
23427;BME280;41148;45.420;10.952;2023-11-19T04:30:06;101197.03;;;6.25;69.37
23427;BME280;41148;45.420;10.952;2023-11-19T04:32:37;101197.94;;;6.17;69.27
23427;BME280;41148;45.420;10.952;2023-11-19T04:35:05;101199.69;;;6.27;69.52
23427;BME280;41148;45.420;10.952;2023-11-19T04:37:33;101200.56;;;6.40;68.80
23427;BME280;41148;45.420;10.952;2023-11-19T04:40:02;101193.50;;;6.37;68.95
23427;BME280;41148;45.420;10.952;2023-11-19T04:42:33;101198.78;;;6.36;68.75
23427;BME280;41148;45.420;10.952;2023-11-19T04:45:01;101194.38;;;6.42;68.80
23427;BME280;41148;45.420;10.952;2023-11-19T04:47:29;101189.94;;;6.47;68.31
23427;BME280;41148;45.420;10.952;2023-11-19T04:49:56;101184.63;;;6.46;67.76
23427;BME280;41148;45.420;10.952;2023-11-19T04:52:23;101182.94;;;6.37;67.28
23427;BME280;41148;45.420;10.952;2023-11-19T04:54:51;101189.09;;;6.41;66.45
23427;BME280;41148;45.420;10.952;2023-11-19T04:57:18;101181.97;;;6.53;66.02
23427;BME280;41148;45.420;10.952;2023-11-19T04:59:46;101172.22;;;6.63;66.51
23427;BME280;41148;45.420;10.952;2023-11-19T05:02:13;101171.31;;;6.72;65.52
23427;BME280;41148;45.420;10.952;2023-11-19T05:04:43;101170.53;;;6.48;65.36
23427;BME280;41148;45.420;10.952;2023-11-19T05:07:14;101162.69;;;6.19;66.65
23427;BME280;41148;45.420;10.952;2023-11-19T05:09:42;101170.63;;;6.19;67.63
23427;BME280;41148;45.420;10.952;2023-11-19T05:12:10;101175.84;;;6.33;67.80
23427;BME280;41148;45.420;10.952;2023-11-19T05:14:39;101168.78;;;6.40;67.45
23427;BME280;41148;45.420;10.952;2023-11-19T05:17:06;101163.44;;;6.53;67.19
23427;BME280;41148;45.420;10.952;2023-11-19T05:19:35;101160.81;;;6.52;67.19
23427;BME280;41148;45.420;10.952;2023-11-19T05:22:02;101166.06;;;6.59;67.15
23427;BME280;41148;45.420;10.952;2023-11-19T05:24:31;101155.44;;;6.69;66.93
23427;BME280;41148;45.420;10.952;2023-11-19T05:26:58;101153.69;;;6.63;67.24
23427;BME280;41148;45.420;10.952;2023-11-19T05:29:25;101153.72;;;6.54;68.32
23427;BME280;41148;45.420;10.952;2023-11-19T05:31:53;101150.25;;;6.44;68.62
23427;BME280;41148;45.420;10.952;2023-11-19T05:34:22;101156.41;;;6.43;68.42
23427;BME280;41148;45.420;10.952;2023-11-19T05:36:49;101151.16;;;6.32;68.64
23427;BME280;41148;45.420;10.952;2023-11-19T05:39:17;101142.34;;;6.30;68.75
23427;BME280;41148;45.420;10.952;2023-11-19T05:41:46;101137.94;;;6.39;67.67
23427;BME280;41148;45.420;10.952;2023-11-19T05:44:14;101149.44;;;6.28;67.86
23427;BME280;41148;45.420;10.952;2023-11-19T05:46:41;101148.56;;;6.16;67.53
23427;BME280;41148;45.420;10.952;2023-11-19T05:49:10;101143.28;;;6.14;67.93
23427;BME280;41148;45.420;10.952;2023-11-19T05:51:38;101153.00;;;6.12;68.12
23427;BME280;41148;45.420;10.952;2023-11-19T05:54:09;101155.66;;;5.97;67.92
23427;BME280;41148;45.420;10.952;2023-11-19T05:56:37;101133.59;;;6.13;67.80
23427;BME280;41148;45.420;10.952;2023-11-19T05:59:04;101137.09;;;6.20;66.66
23427;BME280;41148;45.420;10.952;2023-11-19T06:01:36;101138.91;;;6.01;67.18
23427;BME280;41148;45.420;10.952;2023-11-19T06:04:03;101134.44;;;6.21;66.77
23427;BME280;41148;45.420;10.952;2023-11-19T06:06:31;101130.03;;;6.22;66.60
23427;BME280;41148;45.420;10.952;2023-11-19T06:08:59;101139.78;;;6.05;66.53
23427;BME280;41148;45.420;10.952;2023-11-19T06:11:39;101144.19;;;6.10;67.06
23427;BME280;41148;45.420;10.952;2023-11-19T06:14:06;101130.06;;;6.19;67.15
23427;BME280;41148;45.420;10.952;2023-11-19T06:16:34;101123.84;;;6.24;67.50
23427;BME280;41148;45.420;10.952;2023-11-19T06:19:04;101121.19;;;6.26;67.06
23427;BME280;41148;45.420;10.952;2023-11-19T06:21:31;101130.00;;;6.25;68.61
23427;BME280;41148;45.420;10.952;2023-11-19T06:23:59;101131.81;;;6.21;68.56
23427;BME280;41148;45.420;10.952;2023-11-19T06:26:26;101127.44;;;6.10;68.89
23427;BME280;41148;45.420;10.952;2023-11-19T06:28:54;101134.47;;;6.18;68.43
23427;BME280;41148;45.420;10.952;2023-11-19T06:31:21;101140.66;;;6.11;68.67
23427;BME280;41148;45.420;10.952;2023-11-19T06:33:49;101141.53;;;6.09;68.78
23427;BME280;41148;45.420;10.952;2023-11-19T06:36:16;101143.31;;;5.78;69.26
23427;BME280;41148;45.420;10.952;2023-11-19T06:38:43;101138.00;;;5.85;68.87
23427;BME280;41148;45.420;10.952;2023-11-19T06:41:11;101133.66;;;5.90;69.05
23427;BME280;41148;45.420;10.952;2023-11-19T06:43:38;101130.97;;;5.78;69.32
23427;BME280;41148;45.420;10.952;2023-11-19T06:46:16;101128.34;;;5.93;70.21
23427;BME280;41148;45.420;10.952;2023-11-19T06:48:44;101142.44;;;6.03;70.17
23427;BME280;41148;45.420;10.952;2023-11-19T06:51:12;101135.38;;;6.03;70.27
23427;BME280;41148;45.420;10.952;2023-11-19T06:53:39;101130.13;;;5.91;69.90
23427;BME280;41148;45.420;10.952;2023-11-19T06:56:23;101142.41;;;6.06;69.66
23427;BME280;41148;45.420;10.952;2023-11-19T06:58:51;101135.38;;;5.94;70.86
23427;BME280;41148;45.420;10.952;2023-11-19T07:01:18;101146.84;;;6.01;70.57
23427;BME280;41148;45.420;10.952;2023-11-19T07:03:46;101146.88;;;5.90;71.29
23427;BME280;41148;45.420;10.952;2023-11-19T07:06:14;101155.66;;;5.85;71.82
23427;BME280;41148;45.420;10.952;2023-11-19T07:08:41;101160.97;;;5.92;70.93
23427;BME280;41148;45.420;10.952;2023-11-19T07:11:12;101145.97;;;5.93;70.69
23427;BME280;41148;45.420;10.952;2023-11-19T07:13:42;101145.94;;;6.07;70.43
23427;BME280;41148;45.420;10.952;2023-11-19T07:16:09;101149.50;;;5.83;70.47
23427;BME280;41148;45.420;10.952;2023-11-19T07:18:37;101157.44;;;5.66;71.11
23427;BME280;41148;45.420;10.952;2023-11-19T07:21:05;101155.66;;;5.85;70.93
23427;BME280;41148;45.420;10.952;2023-11-19T07:23:32;101153.88;;;6.07;70.42
23427;BME280;41148;45.420;10.952;2023-11-19T07:26:04;101159.19;;;6.00;69.38
23427;BME280;41148;45.420;10.952;2023-11-19T07:28:31;101160.97;;;5.92;69.83
23427;BME280;41148;45.420;10.952;2023-11-19T07:30:58;101164.47;;;5.90;71.04
23427;BME280;41148;45.420;10.952;2023-11-19T07:33:26;101157.41;;;6.10;70.65
23427;BME280;41148;45.420;10.952;2023-11-19T07:35:54;101161.78;;;6.22;70.42
23427;BME280;41148;45.420;10.952;2023-11-19T07:38:22;101166.22;;;6.08;71.15
23427;BME280;41148;45.420;10.952;2023-11-19T07:40:49;101168.81;;;6.38;70.24
23427;BME280;41148;45.420;10.952;2023-11-19T07:43:19;101171.38;;;6.53;69.96
23427;BME280;41148;45.420;10.952;2023-11-19T07:45:47;101172.28;;;6.52;70.22
23427;BME280;41148;45.420;10.952;2023-11-19T07:48:14;101177.56;;;6.58;70.46
23427;BME280;41148;45.420;10.952;2023-11-19T07:50:42;101167.91;;;6.47;71.78
23427;BME280;41148;45.420;10.952;2023-11-19T07:53:10;101175.81;;;6.51;71.48
23427;BME280;41148;45.420;10.952;2023-11-19T07:55:37;101189.88;;;6.63;71.61
23427;BME280;41148;45.420;10.952;2023-11-19T07:58:08;101187.19;;;6.78;71.29
23427;BME280;41148;45.420;10.952;2023-11-19T08:00:36;101194.16;;;6.94;70.91
23427;BME280;41148;45.420;10.952;2023-11-19T08:03:04;101192.34;;;7.02;70.90
23427;BME280;41148;45.420;10.952;2023-11-19T08:05:32;101199.34;;;7.15;70.50
23427;BME280;41148;45.420;10.952;2023-11-19T08:08:00;101199.25;;;7.29;70.61
23427;BME280;41148;45.420;10.952;2023-11-19T08:10:27;101209.75;;;7.41;70.02
23427;BME280;41148;45.420;10.952;2023-11-19T08:12:54;101216.75;;;7.56;69.69
23427;BME280;41148;45.420;10.952;2023-11-19T08:15:21;101208.66;;;7.74;69.28
23427;BME280;41148;45.420;10.952;2023-11-19T08:17:52;101204.19;;;7.80;69.22
23427;BME280;41148;45.420;10.952;2023-11-19T08:20:19;101209.47;;;7.81;69.91
23427;BME280;41148;45.420;10.952;2023-11-19T08:22:48;101204.88;;;8.01;69.36
23427;BME280;41148;45.420;10.952;2023-11-19T08:25:15;101197.56;;;8.25;68.44
23427;BME280;41148;45.420;10.952;2023-11-19T08:27:43;101185.97;;;8.40;68.09
23427;BME280;41148;45.420;10.952;2023-11-19T08:30:10;101190.38;;;8.38;68.12
23427;BME280;41148;45.420;10.952;2023-11-19T08:32:37;101203.59;;;8.44;67.14
23427;BME280;41148;45.420;10.952;2023-11-19T08:35:05;101203.31;;;8.68;66.35
23427;BME280;41148;45.420;10.952;2023-11-19T08:37:33;101200.47;;;8.83;64.96
23427;BME280;41148;45.420;10.952;2023-11-19T08:40:04;101204.59;;;9.06;63.09
23427;BME280;41148;45.420;10.952;2023-11-19T08:42:31;101214.25;;;9.13;63.43
23427;BME280;41148;45.420;10.952;2023-11-19T08:44:59;101213.91;;;9.37;63.56
23427;BME280;41148;45.420;10.952;2023-11-19T08:47:26;101199.72;;;9.38;63.15
23427;BME280;41148;45.420;10.952;2023-11-19T08:49:53;101185.75;;;9.23;63.80
23427;BME280;41148;45.420;10.952;2023-11-19T08:52:25;101199.72;;;9.38;64.16
23427;BME280;41148;45.420;10.952;2023-11-19T08:54:52;101207.72;;;9.37;63.72
23427;BME280;41148;45.420;10.952;2023-11-19T08:57:20;101202.19;;;9.51;63.59
23427;BME280;41148;45.420;10.952;2023-11-19T08:59:47;101198.72;;;9.44;63.01
23427;BME280;41148;45.420;10.952;2023-11-19T09:02:18;101205.94;;;9.36;63.50
23427;BME280;41148;45.420;10.952;2023-11-19T09:04:46;101203.06;;;9.51;62.69
23427;BME280;41148;45.420;10.952;2023-11-19T09:07:13;101209.22;;;9.56;62.58
23427;BME280;41148;45.420;10.952;2023-11-19T09:09:41;101204.63;;;9.64;62.30
23427;BME280;41148;45.420;10.952;2023-11-19T09:12:08;101200.13;;;9.69;61.91
23427;BME280;41148;45.420;10.952;2023-11-19T09:14:36;101202.59;;;9.80;61.63
23427;BME280;41148;45.420;10.952;2023-11-19T09:17:04;101198.22;;;9.78;61.87
23427;BME280;41148;45.420;10.952;2023-11-19T09:19:32;101191.72;;;9.92;61.26
23427;BME280;41148;45.420;10.952;2023-11-19T09:22:00;101197.09;;;9.91;61.47
23427;BME280;41148;45.420;10.952;2023-11-19T09:24:28;101192.91;;;9.74;62.17
23427;BME280;41148;45.420;10.952;2023-11-19T09:26:55;101180.41;;;9.81;62.16
23427;BME280;41148;45.420;10.952;2023-11-19T09:29:23;101170.63;;;9.82;62.03
23427;BME280;41148;45.420;10.952;2023-11-19T09:31:50;101175.91;;;9.85;62.37
23427;BME280;41148;45.420;10.952;2023-11-19T09:34:18;101182.63;;;10.07;61.11
23427;BME280;41148;45.420;10.952;2023-11-19T09:36:45;101189.69;;;10.08;60.88
23427;BME280;41148;45.420;10.952;2023-11-19T09:39:13;101183.56;;;10.03;61.36
23427;BME280;41148;45.420;10.952;2023-11-19T09:41:45;101187.09;;;10.03;61.76
23427;BME280;41148;45.420;10.952;2023-11-19T09:44:12;101186.97;;;10.11;62.12
23427;BME280;41148;45.420;10.952;2023-11-19T09:46:41;101176.38;;;10.08;62.14
23427;BME280;41148;45.420;10.952;2023-11-19T09:49:08;101179.78;;;10.16;62.35
23427;BME280;41148;45.420;10.952;2023-11-19T09:51:37;101183.34;;;10.15;61.74
23427;BME280;41148;45.420;10.952;2023-11-19T09:54:04;101184.16;;;10.19;61.62
23427;BME280;41148;45.420;10.952;2023-11-19T09:56:31;101163.66;;;10.25;61.41
23427;BME280;41148;45.420;10.952;2023-11-19T09:59:00;101166.94;;;10.40;61.18
23427;BME280;41148;45.420;10.952;2023-11-19T10:01:29;101167.72;;;10.45;61.20
23427;BME280;41148;45.420;10.952;2023-11-19T10:03:59;101158.16;;;10.35;61.48
23427;BME280;41148;45.420;10.952;2023-11-19T10:06:27;101153.66;;;10.38;61.93
23427;BME280;41148;45.420;10.952;2023-11-19T10:08:55;101147.34;;;10.44;62.17
23427;BME280;41148;45.420;10.952;2023-11-19T10:11:23;101148.03;;;10.53;62.50
23427;BME280;41148;45.420;10.952;2023-11-19T10:13:51;101139.38;;;10.42;60.89
23427;BME280;41148;45.420;10.952;2023-11-19T10:16:18;101133.88;;;10.50;61.06
23427;BME280;41148;45.420;10.952;2023-11-19T10:18:46;101143.47;;;10.58;61.25
23427;BME280;41148;45.420;10.952;2023-11-19T10:21:14;101137.28;;;10.56;61.15
23427;BME280;41148;45.420;10.952;2023-11-19T10:23:48;101131.84;;;10.63;61.54
23427;BME280;41148;45.420;10.952;2023-11-19T10:26:17;101127.16;;;10.74;60.81
23427;BME280;41148;45.420;10.952;2023-11-19T10:28:46;101141.31;;;10.76;60.48
23427;BME280;41148;45.420;10.952;2023-11-19T10:31:14;101151.22;;;10.69;59.76
23427;BME280;41148;45.420;10.952;2023-11-19T10:33:42;101146.53;;;10.82;59.83
23427;BME280;41148;45.420;10.952;2023-11-19T10:36:12;101137.09;;;10.66;59.74
23427;BME280;41148;45.420;10.952;2023-11-19T10:38:40;101133.44;;;10.71;60.10
23427;BME280;41148;45.420;10.952;2023-11-19T10:41:07;101126.09;;;10.82;60.06
23427;BME280;41148;45.420;10.952;2023-11-19T10:43:44;101119.47;;;10.99;59.33
23427;BME280;41148;45.420;10.952;2023-11-19T10:46:12;101113.22;;;11.01;59.22
23427;BME280;41148;45.420;10.952;2023-11-19T10:48:41;101103.28;;;11.08;59.00
23427;BME280;41148;45.420;10.952;2023-11-19T10:51:08;101100.47;;;11.14;59.32
23427;BME280;41148;45.420;10.952;2023-11-19T10:53:38;101095.97;;;11.16;58.99
23427;BME280;41148;45.420;10.952;2023-11-19T10:56:10;101095.88;;;11.21;58.65
23427;BME280;41148;45.420;10.952;2023-11-19T10:58:40;101095.63;;;11.31;58.61
23427;BME280;41148;45.420;10.952;2023-11-19T11:04:02;101105.84;;;11.12;58.02
23427;BME280;41148;45.420;10.952;2023-11-19T11:06:30;101103.97;;;11.16;58.67
23427;BME280;41148;45.420;10.952;2023-11-19T11:09:00;101096.81;;;11.18;58.22
23427;BME280;41148;45.420;10.952;2023-11-19T11:11:28;101078.22;;;11.15;58.66
23427;BME280;41148;45.420;10.952;2023-11-19T11:13:55;101081.81;;;11.14;58.56
23427;BME280;41148;45.420;10.952;2023-11-19T11:16:23;101068.38;;;11.17;58.70
23427;BME280;41148;45.420;10.952;2023-11-19T11:18:52;101074.38;;;11.27;58.84
23427;BME280;41148;45.420;10.952;2023-11-19T11:21:21;101092.88;;;11.34;58.10
23427;BME280;41148;45.420;10.952;2023-11-19T11:29:05;101067.72;;;11.44;59.91
23427;BME280;41148;45.420;10.952;2023-11-19T11:36:44;101055.44;;;11.71;58.82
23427;BME280;41148;45.420;10.952;2023-11-19T11:39:15;101050.25;;;11.65;58.75
23427;BME280;41148;45.420;10.952;2023-11-19T11:41:43;101050.16;;;11.70;59.48
23427;BME280;41148;45.420;10.952;2023-11-19T11:44:12;101055.53;;;11.68;59.38
23427;BME280;41148;45.420;10.952;2023-11-19T11:49:07;101040.59;;;11.61;59.21
23427;BME280;41148;45.420;10.952;2023-11-19T11:59:42;101047.09;;;11.51;57.47
23427;BME280;41148;45.420;10.952;2023-11-19T12:02:14;101047.84;;;11.56;57.87
23427;BME280;41148;45.420;10.952;2023-11-19T12:04:46;101049.56;;;11.59;58.01
23427;BME280;41148;45.420;10.952;2023-11-19T12:07:21;101045.09;;;11.59;58.38
23427;BME280;41148;45.420;10.952;2023-11-19T12:10:07;101046.56;;;11.71;58.22
23427;BME280;41148;45.420;10.952;2023-11-19T12:12:35;101042.75;;;11.81;58.08
23427;BME280;41148;45.420;10.952;2023-11-19T12:15:06;101036.56;;;11.79;57.96
23427;BME280;41148;45.420;10.952;2023-11-19T12:20:01;101029.53;;;11.75;57.83
23427;BME280;41148;45.420;10.952;2023-11-19T12:22:29;101018.78;;;11.80;57.99
23427;BME280;41148;45.420;10.952;2023-11-19T12:24:56;101015.13;;;11.82;58.23
23427;BME280;41148;45.420;10.952;2023-11-19T12:27:24;101010.78;;;11.80;57.09
23427;BME280;41148;45.420;10.952;2023-11-19T12:29:51;101015.81;;;11.90;57.38
23427;BME280;41148;45.420;10.952;2023-11-19T12:32:19;101023.94;;;11.86;58.28
23427;BME280;41148;45.420;10.952;2023-11-19T12:34:46;101014.13;;;11.86;58.15
23427;BME280;41148;45.420;10.952;2023-11-19T12:37:13;101013.25;;;11.86;58.53
23427;BME280;41148;45.420;10.952;2023-11-19T12:39:40;101015.66;;;11.95;58.53
23427;BME280;41148;45.420;10.952;2023-11-19T12:42:08;101015.59;;;11.98;58.55
23427;BME280;41148;45.420;10.952;2023-11-19T12:44:35;101015.28;;;12.09;58.12
23427;BME280;41148;45.420;10.952;2023-11-19T12:47:03;101008.81;;;12.16;57.92
23427;BME280;41148;45.420;10.952;2023-11-19T12:49:31;101001.94;;;12.09;57.86
23427;BME280;41148;45.420;10.952;2023-11-19T12:51:59;100989.50;;;12.08;58.13
23427;BME280;41148;45.420;10.952;2023-11-19T12:54:33;100980.56;;;12.09;58.10
23427;BME280;41148;45.420;10.952;2023-11-19T12:57:01;100977.09;;;12.05;57.91
23427;BME280;41148;45.420;10.952;2023-11-19T12:59:28;100977.13;;;12.03;57.82
23427;BME280;41148;45.420;10.952;2023-11-19T13:04:27;100964.88;;;11.98;58.07
23427;BME280;41148;45.420;10.952;2023-11-19T13:06:54;100966.47;;;12.03;58.23
23427;BME280;41148;45.420;10.952;2023-11-19T13:09:27;100956.47;;;12.10;58.00
23427;BME280;41148;45.420;10.952;2023-11-19T13:11:55;100944.72;;;12.16;58.29
23427;BME280;41148;45.420;10.952;2023-11-19T13:14:23;100943.72;;;12.20;57.95
23427;BME280;41148;45.420;10.952;2023-11-19T13:16:50;100953.66;;;12.15;57.52
23427;BME280;41148;45.420;10.952;2023-11-19T13:19:18;100949.34;;;12.11;58.25
23427;BME280;41148;45.420;10.952;2023-11-19T13:21:46;100951.84;;;12.15;58.30
23427;BME280;41148;45.420;10.952;2023-11-19T13:24:16;100936.75;;;12.14;58.25
23427;BME280;41148;45.420;10.952;2023-11-19T13:26:43;100943.81;;;12.17;58.47